sensor_id;sensor_type;location;lat;lon;timestamp;pressure;altitude;pressure_sealevel;temperature;humidity
60487;BME280;46327;39.866;-0.072;2022-07-09T00:02:01;102397.64;;;27.15;57.60
60487;BME280;46327;39.866;-0.072;2022-07-09T00:04:28;102398.90;;;27.29;57.19
60487;BME280;46327;39.866;-0.072;2022-07-09T00:06:55;102395.41;;;27.50;57.20
60487;BME280;46327;39.866;-0.072;2022-07-09T00:09:23;102394.09;;;26.82;57.57
60487;BME280;46327;39.866;-0.072;2022-07-09T00:11:50;102396.20;;;26.45;58.34
60487;BME280;46327;39.866;-0.072;2022-07-09T00:14:18;102392.63;;;26.61;57.85
60487;BME280;46327;39.866;-0.072;2022-07-09T00:16:45;102392.35;;;26.66;58.54
60487;BME280;46327;39.866;-0.072;2022-07-09T00:19:13;102390.48;;;27.12;57.45
60487;BME280;46327;39.866;-0.072;2022-07-09T00:21:40;102388.91;;;26.58;57.63
60487;BME280;46327;39.866;-0.072;2022-07-09T00:24:07;102387.09;;;26.55;57.86
60487;BME280;46327;39.866;-0.072;2022-07-09T00:26:35;102387.49;;;26.72;57.65
60487;BME280;46327;39.866;-0.072;2022-07-09T00:29:02;102382.72;;;26.96;57.51
60487;BME280;46327;39.866;-0.072;2022-07-09T00:31:29;102379.27;;;26.57;57.62
60487;BME280;46327;39.866;-0.072;2022-07-09T00:33:57;102376.54;;;26.18;58.08
60487;BME280;46327;39.866;-0.072;2022-07-09T00:36:24;102374.39;;;26.88;57.53
60487;BME280;46327;39.866;-0.072;2022-07-09T00:38:51;102370.55;;;26.79;57.55
60487;BME280;46327;39.866;-0.072;2022-07-09T00:41:18;102364.90;;;26.65;57.93
60487;BME280;46327;39.866;-0.072;2022-07-09T00:43:47;102361.28;;;26.51;57.73
60487;BME280;46327;39.866;-0.072;2022-07-09T00:46:15;102359.16;;;26.76;57.79
60487;BME280;46327;39.866;-0.072;2022-07-09T00:48:42;102357.67;;;26.27;58.43
60487;BME280;46327;39.866;-0.072;2022-07-09T00:51:11;102354.96;;;26.16;58.64
60487;BME280;46327;39.866;-0.072;2022-07-09T00:53:39;102352.64;;;25.59;60.47
60487;BME280;46327;39.866;-0.072;2022-07-09T00:56:07;102349.66;;;25.95;59.90
60487;BME280;46327;39.866;-0.072;2022-07-09T00:58:35;102348.90;;;26.18;59.20
60487;BME280;46327;39.866;-0.072;2022-07-09T01:01:06;102345.66;;;26.35;58.82
60487;BME280;46327;39.866;-0.072;2022-07-09T01:03:33;102348.05;;;26.43;59.06
60487;BME280;46327;39.866;-0.072;2022-07-09T01:06:00;102347.37;;;26.37;59.02
60487;BME280;46327;39.866;-0.072;2022-07-09T01:08:28;102345.35;;;26.32;58.03
60487;BME280;46327;39.866;-0.072;2022-07-09T01:10:55;102343.33;;;26.01;58.56
60487;BME280;46327;39.866;-0.072;2022-07-09T01:13:24;102339.74;;;26.27;57.89
60487;BME280;46327;39.866;-0.072;2022-07-09T01:15:52;102335.36;;;26.88;57.07
60487;BME280;46327;39.866;-0.072;2022-07-09T01:18:20;102337.20;;;25.99;58.87
60487;BME280;46327;39.866;-0.072;2022-07-09T01:20:47;102335.99;;;26.55;57.79
60487;BME280;46327;39.866;-0.072;2022-07-09T01:23:15;102336.45;;;26.46;57.33
60487;BME280;46327;39.866;-0.072;2022-07-09T01:25:42;102333.21;;;26.18;57.86
60487;BME280;46327;39.866;-0.072;2022-07-09T01:28:10;102333.70;;;25.70;59.02
60487;BME280;46327;39.866;-0.072;2022-07-09T01:30:39;102328.93;;;26.44;58.36
60487;BME280;46327;39.866;-0.072;2022-07-09T01:33:07;102327.53;;;25.91;58.46
60487;BME280;46327;39.866;-0.072;2022-07-09T01:35:34;102328.55;;;26.00;58.71
60487;BME280;46327;39.866;-0.072;2022-07-09T01:38:01;102330.18;;;26.08;58.50
60487;BME280;46327;39.866;-0.072;2022-07-09T01:40:29;102323.16;;;26.02;58.55
60487;BME280;46327;39.866;-0.072;2022-07-09T01:42:56;102324.80;;;25.99;58.57
60487;BME280;46327;39.866;-0.072;2022-07-09T01:45:24;102320.20;;;26.34;58.27
60487;BME280;46327;39.866;-0.072;2022-07-09T01:47:51;102321.24;;;25.96;58.57
60487;BME280;46327;39.866;-0.072;2022-07-09T01:50:18;102317.68;;;26.32;57.79
60487;BME280;46327;39.866;-0.072;2022-07-09T01:52:46;102317.10;;;26.23;57.93
60487;BME280;46327;39.866;-0.072;2022-07-09T01:55:13;102318.07;;;25.62;58.60
60487;BME280;46327;39.866;-0.072;2022-07-09T01:57:40;102316.53;;;25.52;59.52
60487;BME280;46327;39.866;-0.072;2022-07-09T02:00:08;102310.54;;;26.37;58.13
60487;BME280;46327;39.866;-0.072;2022-07-09T02:02:35;102311.46;;;25.64;58.08
60487;BME280;46327;39.866;-0.072;2022-07-09T02:05:03;102310.34;;;26.38;56.71
60487;BME280;46327;39.866;-0.072;2022-07-09T02:07:30;102311.31;;;26.22;56.20
60487;BME280;46327;39.866;-0.072;2022-07-09T02:09:57;102307.31;;;26.14;56.59
60487;BME280;46327;39.866;-0.072;2022-07-09T02:12:25;102302.01;;;25.99;56.37
60487;BME280;46327;39.866;-0.072;2022-07-09T02:14:52;102298.27;;;26.13;56.37
60487;BME280;46327;39.866;-0.072;2022-07-09T02:17:19;102299.90;;;26.34;55.73
60487;BME280;46327;39.866;-0.072;2022-07-09T02:19:47;102297.85;;;26.54;55.72
60487;BME280;46327;39.866;-0.072;2022-07-09T02:22:14;102295.23;;;26.24;55.65
60487;BME280;46327;39.866;-0.072;2022-07-09T02:24:41;102294.60;;;26.39;55.38
60487;BME280;46327;39.866;-0.072;2022-07-09T02:27:09;102293.60;;;26.59;55.45
60487;BME280;46327;39.866;-0.072;2022-07-09T02:29:36;102292.18;;;25.95;55.81
60487;BME280;46327;39.866;-0.072;2022-07-09T02:32:05;102290.35;;;25.85;56.07
60487;BME280;46327;39.866;-0.072;2022-07-09T02:34:32;102292.77;;;25.84;56.17
60487;BME280;46327;39.866;-0.072;2022-07-09T02:36:59;102291.00;;;25.65;56.74
60487;BME280;46327;39.866;-0.072;2022-07-09T02:39:27;102293.99;;;25.76;56.67
60487;BME280;46327;39.866;-0.072;2022-07-09T02:41:54;102295.18;;;26.29;56.77
60487;BME280;46327;39.866;-0.072;2022-07-09T02:44:21;102293.62;;;25.69;57.18
60487;BME280;46327;39.866;-0.072;2022-07-09T02:46:49;102294.98;;;25.85;57.50
60487;BME280;46327;39.866;-0.072;2022-07-09T02:49:17;102293.93;;;26.02;57.16
60487;BME280;46327;39.866;-0.072;2022-07-09T02:51:44;102292.54;;;26.18;56.75
60487;BME280;46327;39.866;-0.072;2022-07-09T02:54:11;102291.47;;;26.54;56.39
60487;BME280;46327;39.866;-0.072;2022-07-09T02:56:38;102289.75;;;26.01;57.48
60487;BME280;46327;39.866;-0.072;2022-07-09T02:59:05;102288.35;;;26.09;56.90
60487;BME280;46327;39.866;-0.072;2022-07-09T03:01:33;102284.94;;;25.88;57.29
60487;BME280;46327;39.866;-0.072;2022-07-09T03:04:01;102288.10;;;25.52;57.41
60487;BME280;46327;39.866;-0.072;2022-07-09T03:06:28;102285.44;;;25.93;57.45
60487;BME280;46327;39.866;-0.072;2022-07-09T03:08:56;102280.76;;;26.10;56.91
60487;BME280;46327;39.866;-0.072;2022-07-09T03:11:23;102283.00;;;26.08;56.81
60487;BME280;46327;39.866;-0.072;2022-07-09T03:13:50;102282.57;;;25.63;56.41
60487;BME280;46327;39.866;-0.072;2022-07-09T03:16:17;102282.54;;;25.74;55.53
60487;BME280;46327;39.866;-0.072;2022-07-09T03:18:45;102285.08;;;26.08;55.31
60487;BME280;46327;39.866;-0.072;2022-07-09T03:21:12;102284.34;;;26.00;54.99
60487;BME280;46327;39.866;-0.072;2022-07-09T03:23:39;102283.59;;;25.56;54.93
60487;BME280;46327;39.866;-0.072;2022-07-09T03:26:06;102287.21;;;26.16;53.89
60487;BME280;46327;39.866;-0.072;2022-07-09T03:28:34;102286.31;;;26.40;53.52
60487;BME280;46327;39.866;-0.072;2022-07-09T03:31:02;102285.58;;;26.01;54.10
60487;BME280;46327;39.866;-0.072;2022-07-09T03:33:29;102289.47;;;25.63;54.28
60487;BME280;46327;39.866;-0.072;2022-07-09T03:35:56;102287.03;;;25.57;54.75
60487;BME280;46327;39.866;-0.072;2022-07-09T03:38:24;102292.35;;;25.48;54.91
60487;BME280;46327;39.866;-0.072;2022-07-09T03:40:51;102290.82;;;25.80;54.20
60487;BME280;46327;39.866;-0.072;2022-07-09T03:43:19;102289.84;;;26.35;53.08
60487;BME280;46327;39.866;-0.072;2022-07-09T03:45:46;102290.98;;;26.04;53.22
60487;BME280;46327;39.866;-0.072;2022-07-09T03:48:14;102296.38;;;26.05;53.61
60487;BME280;46327;39.866;-0.072;2022-07-09T03:50:41;102302.38;;;26.02;53.65
60487;BME280;46327;39.866;-0.072;2022-07-09T03:53:08;102301.90;;;25.84;53.92
60487;BME280;46327;39.866;-0.072;2022-07-09T03:55:36;102303.00;;;25.48;54.17
60487;BME280;46327;39.866;-0.072;2022-07-09T03:58:05;102304.63;;;25.89;53.77
60487;BME280;46327;39.866;-0.072;2022-07-09T04:00:31;102308.42;;;25.74;53.95
60487;BME280;46327;39.866;-0.072;2022-07-09T04:02:59;102305.30;;;25.27;54.39
60487;BME280;46327;39.866;-0.072;2022-07-09T04:05:26;102306.40;;;25.45;54.44
60487;BME280;46327;39.866;-0.072;2022-07-09T04:07:53;102307.76;;;25.61;54.00
60487;BME280;46327;39.866;-0.072;2022-07-09T04:10:21;102314.19;;;25.23;54.67
60487;BME280;46327;39.866;-0.072;2022-07-09T04:12:48;102314.44;;;25.09;54.91
60487;BME280;46327;39.866;-0.072;2022-07-09T04:15:15;102315.89;;;24.94;55.17
60487;BME280;46327;39.866;-0.072;2022-07-09T04:17:43;102318.18;;;25.07;54.80
60487;BME280;46327;39.866;-0.072;2022-07-09T04:20:11;102318.94;;;24.95;54.83
60487;BME280;46327;39.866;-0.072;2022-07-09T04:22:38;102317.39;;;25.05;54.55
60487;BME280;46327;39.866;-0.072;2022-07-09T04:25:06;102315.57;;;24.35;55.34
60487;BME280;46327;39.866;-0.072;2022-07-09T04:27:34;102319.22;;;25.47;54.50
60487;BME280;46327;39.866;-0.072;2022-07-09T04:30:02;102318.73;;;24.70;54.97
60487;BME280;46327;39.866;-0.072;2022-07-09T04:32:29;102319.05;;;25.18;54.94
60487;BME280;46327;39.866;-0.072;2022-07-09T04:34:57;102319.20;;;24.78;55.76
60487;BME280;46327;39.866;-0.072;2022-07-09T04:37:24;102318.82;;;24.40;56.16
60487;BME280;46327;39.866;-0.072;2022-07-09T04:39:52;102316.11;;;25.16;55.05
60487;BME280;46327;39.866;-0.072;2022-07-09T04:42:20;102314.24;;;24.62;55.46
60487;BME280;46327;39.866;-0.072;2022-07-09T04:44:47;102313.16;;;24.54;55.05
60487;BME280;46327;39.866;-0.072;2022-07-09T04:47:14;102311.90;;;24.82;55.08
60487;BME280;46327;39.866;-0.072;2022-07-09T04:49:41;102309.16;;;24.75;55.65
60487;BME280;46327;39.866;-0.072;2022-07-09T04:52:08;102310.97;;;24.36;55.54
60487;BME280;46327;39.866;-0.072;2022-07-09T04:54:35;102312.52;;;24.45;56.07
60487;BME280;46327;39.866;-0.072;2022-07-09T04:57:03;102315.09;;;24.74;55.97
60487;BME280;46327;39.866;-0.072;2022-07-09T04:59:32;102312.59;;;24.97;55.57
60487;BME280;46327;39.866;-0.072;2022-07-09T05:01:59;102315.82;;;23.98;56.56
60487;BME280;46327;39.866;-0.072;2022-07-09T05:04:26;102314.85;;;24.32;55.88
60487;BME280;46327;39.866;-0.072;2022-07-09T05:06:56;102318.23;;;24.87;55.76
60487;BME280;46327;39.866;-0.072;2022-07-09T05:09:24;102320.91;;;24.57;55.34
60487;BME280;46327;39.866;-0.072;2022-07-09T05:11:51;102318.42;;;24.42;55.64
60487;BME280;46327;39.866;-0.072;2022-07-09T05:14:18;102318.26;;;24.34;56.25
60487;BME280;46327;39.866;-0.072;2022-07-09T05:16:45;102317.75;;;24.62;55.53
60487;BME280;46327;39.866;-0.072;2022-07-09T05:19:13;102319.46;;;24.72;55.34
60487;BME280;46327;39.866;-0.072;2022-07-09T05:21:42;102320.00;;;24.51;55.33
60487;BME280;46327;39.866;-0.072;2022-07-09T05:24:09;102323.25;;;25.36;54.36
60487;BME280;46327;39.866;-0.072;2022-07-09T05:26:37;102320.86;;;24.63;55.85
60487;BME280;46327;39.866;-0.072;2022-07-09T05:29:04;102321.51;;;24.61;55.81
60487;BME280;46327;39.866;-0.072;2022-07-09T05:31:31;102321.11;;;24.51;56.05
60487;BME280;46327;39.866;-0.072;2022-07-09T05:33:58;102324.21;;;24.69;55.63
60487;BME280;46327;39.866;-0.072;2022-07-09T05:36:26;102324.33;;;25.12;55.04
60487;BME280;46327;39.866;-0.072;2022-07-09T05:38:54;102323.84;;;24.48;55.74
60487;BME280;46327;39.866;-0.072;2022-07-09T05:41:21;102326.05;;;24.85;55.42
60487;BME280;46327;39.866;-0.072;2022-07-09T05:43:49;102323.11;;;24.30;55.44
60487;BME280;46327;39.866;-0.072;2022-07-09T05:46:15;102322.50;;;24.82;54.98
60487;BME280;46327;39.866;-0.072;2022-07-09T05:48:43;102323.05;;;24.60;55.08
60487;BME280;46327;39.866;-0.072;2022-07-09T05:51:09;102323.29;;;24.83;54.57
60487;BME280;46327;39.866;-0.072;2022-07-09T05:53:37;102324.15;;;24.60;54.53
60487;BME280;46327;39.866;-0.072;2022-07-09T05:56:04;102328.83;;;25.01;54.01
60487;BME280;46327;39.866;-0.072;2022-07-09T05:58:32;102333.74;;;25.07;52.85
60487;BME280;46327;39.866;-0.072;2022-07-09T06:01:02;102334.69;;;25.23;52.87
60487;BME280;46327;39.866;-0.072;2022-07-09T06:03:30;102337.42;;;25.17;52.84
60487;BME280;46327;39.866;-0.072;2022-07-09T06:05:57;102343.15;;;25.54;51.57
60487;BME280;46327;39.866;-0.072;2022-07-09T06:08:24;102344.08;;;25.30;51.68
60487;BME280;46327;39.866;-0.072;2022-07-09T06:10:51;102346.81;;;25.40;51.51
60487;BME280;46327;39.866;-0.072;2022-07-09T06:13:18;102346.30;;;25.06;52.14
60487;BME280;46327;39.866;-0.072;2022-07-09T06:15:45;102349.15;;;24.94;52.43
60487;BME280;46327;39.866;-0.072;2022-07-09T06:18:13;102352.00;;;25.77;51.82
60487;BME280;46327;39.866;-0.072;2022-07-09T06:20:40;102347.57;;;25.17;51.97
60487;BME280;46327;39.866;-0.072;2022-07-09T06:23:08;102350.34;;;25.39;51.60
60487;BME280;46327;39.866;-0.072;2022-07-09T06:25:35;102347.02;;;25.44;52.04
60487;BME280;46327;39.866;-0.072;2022-07-09T06:28:03;102345.44;;;25.68;51.71
60487;BME280;46327;39.866;-0.072;2022-07-09T06:30:31;102342.34;;;25.80;51.02
60487;BME280;46327;39.866;-0.072;2022-07-09T06:32:58;102344.24;;;25.59;50.88
60487;BME280;46327;39.866;-0.072;2022-07-09T06:35:25;102342.59;;;25.88;50.61
60487;BME280;46327;39.866;-0.072;2022-07-09T06:37:52;102345.34;;;25.86;50.77
60487;BME280;46327;39.866;-0.072;2022-07-09T06:40:20;102346.52;;;26.07;49.96
60487;BME280;46327;39.866;-0.072;2022-07-09T06:42:48;102347.05;;;26.13;49.81
60487;BME280;46327;39.866;-0.072;2022-07-09T06:45:16;102347.00;;;25.92;50.12
60487;BME280;46327;39.866;-0.072;2022-07-09T06:47:43;102345.82;;;26.32;49.26
60487;BME280;46327;39.866;-0.072;2022-07-09T06:50:10;102344.68;;;26.21;48.92
60487;BME280;46327;39.866;-0.072;2022-07-09T06:52:37;102339.47;;;26.52;48.23
60487;BME280;46327;39.866;-0.072;2022-07-09T06:55:05;102340.01;;;26.41;47.78
60487;BME280;46327;39.866;-0.072;2022-07-09T06:57:33;102340.73;;;26.84;47.19
60487;BME280;46327;39.866;-0.072;2022-07-09T07:00:00;102340.27;;;26.19;47.27
60487;BME280;46327;39.866;-0.072;2022-07-09T07:02:28;102341.25;;;26.92;46.57
60487;BME280;46327;39.866;-0.072;2022-07-09T07:04:55;102340.72;;;26.79;46.14
60487;BME280;46327;39.866;-0.072;2022-07-09T07:07:22;102341.87;;;27.11;46.32
60487;BME280;46327;39.866;-0.072;2022-07-09T07:09:49;102342.47;;;27.25;46.47
60487;BME280;46327;39.866;-0.072;2022-07-09T07:12:17;102342.26;;;27.06;45.71
60487;BME280;46327;39.866;-0.072;2022-07-09T07:14:43;102338.61;;;26.76;46.37
60487;BME280;46327;39.866;-0.072;2022-07-09T07:17:11;102339.53;;;27.00;46.05
60487;BME280;46327;39.866;-0.072;2022-07-09T07:19:38;102339.36;;;26.92;45.85
60487;BME280;46327;39.866;-0.072;2022-07-09T07:22:05;102338.41;;;27.10;45.10
60487;BME280;46327;39.866;-0.072;2022-07-09T07:24:33;102341.05;;;27.09;45.18
60487;BME280;46327;39.866;-0.072;2022-07-09T07:27:00;102341.58;;;27.01;45.43
60487;BME280;46327;39.866;-0.072;2022-07-09T07:29:27;102340.29;;;27.16;45.73
60487;BME280;46327;39.866;-0.072;2022-07-09T07:31:54;102339.66;;;26.78;45.61
60487;BME280;46327;39.866;-0.072;2022-07-09T07:34:22;102339.04;;;27.54;45.11
60487;BME280;46327;39.866;-0.072;2022-07-09T07:36:50;102338.93;;;27.61;45.04
60487;BME280;46327;39.866;-0.072;2022-07-09T07:39:17;102339.23;;;27.08;45.34
60487;BME280;46327;39.866;-0.072;2022-07-09T07:41:45;102341.27;;;27.46;45.02
60487;BME280;46327;39.866;-0.072;2022-07-09T07:44:12;102342.40;;;27.59;44.80
60487;BME280;46327;39.866;-0.072;2022-07-09T07:46:40;102340.64;;;27.37;44.57
60487;BME280;46327;39.866;-0.072;2022-07-09T07:49:07;102339.62;;;27.35;44.29
60487;BME280;46327;39.866;-0.072;2022-07-09T07:51:34;102338.71;;;27.89;43.72
60487;BME280;46327;39.866;-0.072;2022-07-09T07:54:02;102337.31;;;27.37;44.64
60487;BME280;46327;39.866;-0.072;2022-07-09T07:56:29;102337.32;;;27.62;45.04
60487;BME280;46327;39.866;-0.072;2022-07-09T07:58:56;102339.44;;;27.52;45.65
60487;BME280;46327;39.866;-0.072;2022-07-09T08:01:23;102338.69;;;27.00;46.97
60487;BME280;46327;39.866;-0.072;2022-07-09T08:03:53;102338.31;;;27.34;47.14
60487;BME280;46327;39.866;-0.072;2022-07-09T08:06:20;102339.16;;;27.02;48.56
60487;BME280;46327;39.866;-0.072;2022-07-09T08:08:48;102338.34;;;27.01;49.23
60487;BME280;46327;39.866;-0.072;2022-07-09T08:11:15;102341.29;;;26.90;49.96
60487;BME280;46327;39.866;-0.072;2022-07-09T08:13:42;102342.03;;;26.82;51.00
60487;BME280;46327;39.866;-0.072;2022-07-09T08:16:09;102337.90;;;27.30;51.11
60487;BME280;46327;39.866;-0.072;2022-07-09T08:18:37;102340.76;;;27.21;51.31
60487;BME280;46327;39.866;-0.072;2022-07-09T08:21:04;102342.93;;;26.80;52.07
60487;BME280;46327;39.866;-0.072;2022-07-09T08:23:31;102341.01;;;27.34;51.78
60487;BME280;46327;39.866;-0.072;2022-07-09T08:25:59;102338.84;;;26.80;53.05
60487;BME280;46327;39.866;-0.072;2022-07-09T08:28:26;102333.65;;;27.01;53.27
60487;BME280;46327;39.866;-0.072;2022-07-09T08:30:53;102341.33;;;26.62;54.20
60487;BME280;46327;39.866;-0.072;2022-07-09T08:33:20;102338.80;;;26.91;53.96
60487;BME280;46327;39.866;-0.072;2022-07-09T08:35:48;102340.91;;;27.17;53.98
60487;BME280;46327;39.866;-0.072;2022-07-09T08:38:15;102337.85;;;26.86;54.37
60487;BME280;46327;39.866;-0.072;2022-07-09T08:40:43;102335.92;;;27.07;54.20
60487;BME280;46327;39.866;-0.072;2022-07-09T08:43:10;102340.38;;;26.89;54.86
60487;BME280;46327;39.866;-0.072;2022-07-09T08:45:38;102338.95;;;26.65;56.59
60487;BME280;46327;39.866;-0.072;2022-07-09T08:48:06;102341.13;;;26.72;57.18
60487;BME280;46327;39.866;-0.072;2022-07-09T08:50:35;102337.41;;;26.92;56.49
60487;BME280;46327;39.866;-0.072;2022-07-09T08:53:03;102336.74;;;27.19;55.73
60487;BME280;46327;39.866;-0.072;2022-07-09T08:55:31;102339.33;;;27.11;56.61
60487;BME280;46327;39.866;-0.072;2022-07-09T08:58:00;102338.26;;;27.36;56.11
60487;BME280;46327;39.866;-0.072;2022-07-09T09:00:28;102339.33;;;27.30;55.50
60487;BME280;46327;39.866;-0.072;2022-07-09T09:02:55;102341.44;;;27.12;55.33
60487;BME280;46327;39.866;-0.072;2022-07-09T09:05:22;102337.89;;;27.58;55.63
60487;BME280;46327;39.866;-0.072;2022-07-09T09:07:50;102338.33;;;27.60;55.62
60487;BME280;46327;39.866;-0.072;2022-07-09T09:10:22;102339.12;;;27.70;54.99
60487;BME280;46327;39.866;-0.072;2022-07-09T09:12:55;102343.05;;;27.71;55.26
60487;BME280;46327;39.866;-0.072;2022-07-09T09:15:23;102344.02;;;27.42;55.11
60487;BME280;46327;39.866;-0.072;2022-07-09T09:17:50;102345.91;;;27.98;55.22
60487;BME280;46327;39.866;-0.072;2022-07-09T09:20:18;102346.55;;;27.75;54.78
60487;BME280;46327;39.866;-0.072;2022-07-09T09:22:47;102345.35;;;28.31;54.02
60487;BME280;46327;39.866;-0.072;2022-07-09T09:25:17;102348.99;;;27.96;53.75
60487;BME280;46327;39.866;-0.072;2022-07-09T09:27:50;102350.06;;;27.89;53.38
60487;BME280;46327;39.866;-0.072;2022-07-09T09:30:18;102350.16;;;27.93;53.28
60487;BME280;46327;39.866;-0.072;2022-07-09T09:32:54;102347.88;;;28.00;53.13
60487;BME280;46327;39.866;-0.072;2022-07-09T09:35:22;102346.01;;;28.30;52.86
60487;BME280;46327;39.866;-0.072;2022-07-09T09:37:50;102345.40;;;27.88;52.55
60487;BME280;46327;39.866;-0.072;2022-07-09T09:40:18;102343.76;;;28.18;52.78
60487;BME280;46327;39.866;-0.072;2022-07-09T09:42:46;102344.23;;;27.67;52.82
60487;BME280;46327;39.866;-0.072;2022-07-09T09:45:14;102345.28;;;28.32;52.35
60487;BME280;46327;39.866;-0.072;2022-07-09T09:47:46;102343.12;;;27.84;52.34
60487;BME280;46327;39.866;-0.072;2022-07-09T09:50:19;102345.04;;;27.84;52.78
60487;BME280;46327;39.866;-0.072;2022-07-09T09:52:48;102343.06;;;27.67;52.74
60487;BME280;46327;39.866;-0.072;2022-07-09T09:55:17;102343.38;;;27.70;52.79
60487;BME280;46327;39.866;-0.072;2022-07-09T09:57:45;102343.88;;;27.69;52.93
60487;BME280;46327;39.866;-0.072;2022-07-09T10:00:14;102340.38;;;27.97;52.85
60487;BME280;46327;39.866;-0.072;2022-07-09T10:02:46;102340.35;;;28.35;52.57
60487;BME280;46327;39.866;-0.072;2022-07-09T10:05:14;102337.32;;;28.13;52.58
60487;BME280;46327;39.866;-0.072;2022-07-09T10:07:42;102337.42;;;27.86;52.67
60487;BME280;46327;39.866;-0.072;2022-07-09T10:10:17;102338.05;;;27.86;52.74
60487;BME280;46327;39.866;-0.072;2022-07-09T10:12:44;102337.59;;;27.97;52.58
60487;BME280;46327;39.866;-0.072;2022-07-09T10:15:20;102336.48;;;28.01;52.21
60487;BME280;46327;39.866;-0.072;2022-07-09T10:17:48;102337.48;;;27.74;53.17
60487;BME280;46327;39.866;-0.072;2022-07-09T10:20:15;102331.97;;;27.92;52.92
60487;BME280;46327;39.866;-0.072;2022-07-09T10:22:44;102332.78;;;27.87;52.92
60487;BME280;46327;39.866;-0.072;2022-07-09T10:25:21;102332.73;;;28.07;52.92
60487;BME280;46327;39.866;-0.072;2022-07-09T10:27:49;102333.11;;;28.14;52.57
60487;BME280;46327;39.866;-0.072;2022-07-09T10:30:25;102332.97;;;28.24;52.52
60487;BME280;46327;39.866;-0.072;2022-07-09T10:33:09;102331.37;;;28.25;52.50
60487;BME280;46327;39.866;-0.072;2022-07-09T10:35:41;102329.16;;;28.13;52.68
60487;BME280;46327;39.866;-0.072;2022-07-09T10:38:09;102328.75;;;28.23;52.39
60487;BME280;46327;39.866;-0.072;2022-07-09T10:40:39;102325.45;;;28.45;52.13
60487;BME280;46327;39.866;-0.072;2022-07-09T10:43:07;102322.63;;;27.91;52.28
60487;BME280;46327;39.866;-0.072;2022-07-09T10:45:37;102321.41;;;27.88;52.67
60487;BME280;46327;39.866;-0.072;2022-07-09T10:48:06;102320.48;;;28.01;52.27
60487;BME280;46327;39.866;-0.072;2022-07-09T10:50:37;102316.94;;;27.76;52.25
60487;BME280;46327;39.866;-0.072;2022-07-09T10:53:05;102309.76;;;27.81;52.37
60487;BME280;46327;39.866;-0.072;2022-07-09T10:55:33;102308.48;;;27.96;51.87
60487;BME280;46327;39.866;-0.072;2022-07-09T10:58:00;102307.77;;;28.14;52.15
60487;BME280;46327;39.866;-0.072;2022-07-09T11:00:29;102305.55;;;27.95;50.93
60487;BME280;46327;39.866;-0.072;2022-07-09T11:03:00;102306.62;;;27.72;50.76
60487;BME280;46327;39.866;-0.072;2022-07-09T11:05:28;102306.00;;;27.81;51.20
60487;BME280;46327;39.866;-0.072;2022-07-09T11:07:57;102307.21;;;28.20;51.43
60487;BME280;46327;39.866;-0.072;2022-07-09T11:10:25;102305.74;;;28.10;51.71
60487;BME280;46327;39.866;-0.072;2022-07-09T11:12:52;102304.83;;;28.39;51.53
60487;BME280;46327;39.866;-0.072;2022-07-09T11:15:21;102300.88;;;28.43;51.60
60487;BME280;46327;39.866;-0.072;2022-07-09T11:17:55;102298.40;;;28.42;51.71
60487;BME280;46327;39.866;-0.072;2022-07-09T11:20:22;102292.57;;;28.44;51.73
60487;BME280;46327;39.866;-0.072;2022-07-09T11:22:50;102290.74;;;28.36;51.97
60487;BME280;46327;39.866;-0.072;2022-07-09T11:25:18;102287.76;;;28.19;51.87
60487;BME280;46327;39.866;-0.072;2022-07-09T11:27:45;102286.44;;;28.32;52.22
60487;BME280;46327;39.866;-0.072;2022-07-09T11:30:13;102280.15;;;28.38;52.07
60487;BME280;46327;39.866;-0.072;2022-07-09T11:32:41;102277.64;;;28.07;51.90
60487;BME280;46327;39.866;-0.072;2022-07-09T11:35:09;102274.48;;;28.34;51.71
60487;BME280;46327;39.866;-0.072;2022-07-09T11:37:37;102265.08;;;28.04;52.30
60487;BME280;46327;39.866;-0.072;2022-07-09T11:40:05;102265.53;;;27.87;52.55
60487;BME280;46327;39.866;-0.072;2022-07-09T11:42:41;102258.95;;;27.89;52.50
60487;BME280;46327;39.866;-0.072;2022-07-09T11:45:09;102255.78;;;28.18;51.76
60487;BME280;46327;39.866;-0.072;2022-07-09T11:47:38;102253.40;;;28.59;51.33
60487;BME280;46327;39.866;-0.072;2022-07-09T11:50:08;102246.13;;;27.81;51.22
60487;BME280;46327;39.866;-0.072;2022-07-09T11:52:36;102243.24;;;28.29;50.82
60487;BME280;46327;39.866;-0.072;2022-07-09T11:55:05;102237.98;;;28.10;50.57
60487;BME280;46327;39.866;-0.072;2022-07-09T11:57:35;102236.77;;;27.95;50.95
60487;BME280;46327;39.866;-0.072;2022-07-09T12:00:04;102234.04;;;27.64;51.33
60487;BME280;46327;39.866;-0.072;2022-07-09T12:02:33;102231.00;;;28.15;50.38
60487;BME280;46327;39.866;-0.072;2022-07-09T12:05:04;102226.05;;;28.26;51.09
60487;BME280;46327;39.866;-0.072;2022-07-09T12:07:32;102224.54;;;27.82;50.85
60487;BME280;46327;39.866;-0.072;2022-07-09T12:10:01;102225.57;;;28.13;50.03
60487;BME280;46327;39.866;-0.072;2022-07-09T12:12:28;102225.83;;;28.24;49.84
60487;BME280;46327;39.866;-0.072;2022-07-09T12:14:55;102221.40;;;28.02;50.27
60487;BME280;46327;39.866;-0.072;2022-07-09T12:17:24;102220.72;;;27.76;50.67
60487;BME280;46327;39.866;-0.072;2022-07-09T12:19:51;102219.03;;;27.73;50.04
60487;BME280;46327;39.866;-0.072;2022-07-09T12:22:20;102218.30;;;28.18;49.71
60487;BME280;46327;39.866;-0.072;2022-07-09T12:24:47;102217.76;;;28.12;49.88
60487;BME280;46327;39.866;-0.072;2022-07-09T12:27:15;102212.32;;;28.29;49.62
60487;BME280;46327;39.866;-0.072;2022-07-09T12:29:43;102210.52;;;27.85;50.35
60487;BME280;46327;39.866;-0.072;2022-07-09T12:32:10;102209.75;;;27.69;50.68
60487;BME280;46327;39.866;-0.072;2022-07-09T12:34:38;102206.97;;;27.73;50.43
60487;BME280;46327;39.866;-0.072;2022-07-09T12:37:05;102203.40;;;27.71;50.50
60487;BME280;46327;39.866;-0.072;2022-07-09T12:39:33;102201.23;;;27.63;50.12
60487;BME280;46327;39.866;-0.072;2022-07-09T12:42:00;102199.99;;;27.60;50.22
60487;BME280;46327;39.866;-0.072;2022-07-09T12:44:28;102199.16;;;27.69;50.03